Time;durP1;ratioP1;P1;durP2;ratioP2;P2;SDS_P1;SDS_P2;PMS_P1;PMS_P2;Temp;Humidity;BMP_temperature;BMP_pressure;BME280_temperature;BME280_humidity;BME280_pressure;Samples;Min_cycle;Max_cycle;Signal;HPM_P1;HPM_P2
2023/07/25 00:01:02;;;;;;;;;2.00;2.00;;;;;24.44;49.74;100075.59;5016479;28;45321;-46
2023/07/25 00:03:27;;;;;;;;;2.50;2.50;;;;;24.38;49.24;100076.97;5016551;28;45316;-45
2023/07/25 00:05:53;;;;;;;;;1.00;1.00;;;;;24.31;49.41;100075.78;5016641;28;45427;-42
2023/07/25 00:08:18;;;;;;;;;0.50;0.50;;;;;24.27;49.90;100076.16;5016598;28;46589;-42
2023/07/25 00:10:43;;;;;;;;;1.00;1.00;;;;;24.25;49.98;100076.31;5015606;28;64519;-42
2023/07/25 00:13:08;;;;;;;;;3.75;2.00;;;;;24.24;49.77;100086.06;4998578;28;45251;-42
2023/07/25 00:15:34;;;;;;;;;3.00;1.00;;;;;24.25;49.68;100086.91;5016235;28;45378;-39
2023/07/25 00:17:59;;;;;;;;;1.00;1.00;;;;;24.30;50.10;100083.88;5015295;28;45251;-46
2023/07/25 00:20:24;;;;;;;;;1.50;1.50;;;;;24.31;49.79;100081.06;5016221;28;45308;-45
2023/07/25 00:22:50;;;;;;;;;1.25;1.25;;;;;24.32;49.20;100081.94;5016595;28;45393;-46
2023/07/25 00:25:16;;;;;;;;;1.00;1.00;;;;;24.33;49.86;100076.50;4998703;28;45387;-42
2023/07/25 00:27:42;;;;;;;;;1.00;1.00;;;;;24.35;49.44;100071.91;5015417;28;45628;-42
2023/07/25 00:30:08;;;;;;;;;1.00;1.00;;;;;24.35;49.14;100090.47;5016096;28;45446;-40
2023/07/25 00:32:34;;;;;;;;;1.75;1.00;;;;;24.36;49.08;100089.50;5016049;28;45343;-42
2023/07/25 00:34:59;;;;;;;;;1.50;1.50;;;;;24.36;49.61;100096.63;5016280;28;45587;-42
2023/07/25 00:37:27;;;;;;;;;1.00;1.00;;;;;24.36;49.54;100096.63;5016031;28;45268;-42
2023/07/25 00:39:53;;;;;;;;;1.00;1.00;;;;;24.35;48.87;100098.41;5016374;28;45892;-41
2023/07/25 00:42:18;;;;;;;;;1.00;1.00;;;;;24.36;49.02;100084.19;5016415;28;45768;-42
2023/07/25 00:44:44;;;;;;;;;2.75;1.75;;;;;24.34;49.30;100067.59;5016125;28;45565;-45
2023/07/25 00:47:09;;;;;;;;;2.00;1.00;;;;;24.36;49.57;100070.94;5015642;28;46341;-41
2023/07/25 00:49:35;;;;;;;;;1.25;1.25;;;;;24.37;49.06;100067.34;5015709;28;45238;-42
2023/07/25 00:52:01;;;;;;;;;1.00;0.50;;;;;24.37;49.59;100067.34;5015933;28;45274;-43
2023/07/25 00:54:26;;;;;;;;;1.00;1.00;;;;;24.36;49.41;100060.34;5016047;28;45503;-42
2023/07/25 00:56:51;;;;;;;;;2.75;2.00;;;;;24.38;49.63;100061.06;5017005;28;48394;-39
2023/07/25 00:59:17;;;;;;;;;1.00;1.00;;;;;24.41;49.10;100064.44;5018555;28;61687;-43
2023/07/25 01:01:42;;;;;;;;;1.00;1.00;;;;;24.42;49.11;100063.47;5019303;28;45476;-42
2023/07/25 01:04:08;;;;;;;;;1.00;1.00;;;;;24.40;49.19;100058.28;5019416;28;45531;-42
2023/07/25 01:06:36;;;;;;;;;1.00;1.00;;;;;24.39;49.25;100057.47;5018955;28;45305;-42
2023/07/25 01:09:02;;;;;;;;;2.00;1.00;;;;;24.39;49.54;100057.47;5019055;28;45448;-43
2023/07/25 01:11:28;;;;;;;;;2.25;1.75;;;;;24.39;49.70;100056.59;5001356;28;45319;-41
2023/07/25 01:13:53;;;;;;;;;2.00;2.00;;;;;24.41;49.50;100061.78;5019678;28;45237;-41
2023/07/25 01:16:25;;;;;;;;;1.00;1.00;;;;;24.39;49.45;100054.81;5018929;28;45977;-42
2023/07/25 01:18:51;;;;;;;;;2.75;1.25;;;;;24.39;49.71;100056.59;5019426;28;45661;-41
2023/07/25 01:21:17;;;;;;;;;1.75;1.75;;;;;24.38;49.70;100049.63;5019059;28;45448;-41
2023/07/25 01:23:43;;;;;;;;;1.25;1.25;;;;;24.42;49.73;100060.81;5019224;28;45507;-42
2023/07/25 01:26:08;;;;;;;;;1.00;1.00;;;;;24.41;49.64;100048.56;5018668;28;45458;-42
2023/07/25 01:28:34;;;;;;;;;1.00;1.00;;;;;24.39;49.24;100052.16;5018781;28;45426;-42
2023/07/25 01:30:59;;;;;;;;;1.75;1.25;;;;;24.42;49.37;100052.88;5018903;28;45357;-42
2023/07/25 01:33:24;;;;;;;;;0.00;0.00;;;;;24.42;49.61;100050.22;5019031;28;46589;-42
2023/07/25 01:35:50;;;;;;;;;3.00;1.25;;;;;24.41;49.80;100049.38;5018464;28;46288;-42
2023/07/25 01:38:15;;;;;;;;;1.25;1.25;;;;;24.41;49.37;100037.97;5018678;28;45334;-44
2023/07/25 01:40:41;;;;;;;;;0.75;0.75;;;;;24.37;49.54;100029.41;5018675;28;45373;-43
2023/07/25 01:43:10;;;;;;;;;1.00;1.00;;;;;24.37;49.35;100024.09;5018786;28;45243;-41
2023/07/25 01:45:36;;;;;;;;;3.00;1.75;;;;;24.38;49.57;100026.66;5018261;28;46346;-42
2023/07/25 01:48:01;;;;;;;;;0.50;0.50;;;;;24.36;49.02;100020.63;5018480;28;45436;-42
2023/07/25 01:50:27;;;;;;;;;1.00;1.00;;;;;24.37;49.44;100024.97;5000522;28;45411;-41
2023/07/25 01:52:53;;;;;;;;;1.00;1.00;;;;;24.37;49.37;100030.25;5018936;28;45437;-42
2023/07/25 01:55:19;;;;;;;;;1.00;1.00;;;;;24.37;49.45;100038.22;5018440;28;46633;-41
2023/07/25 01:57:44;;;;;;;;;1.00;1.00;;;;;24.39;49.50;100041.56;5000581;28;45159;-43
2023/07/25 02:00:10;;;;;;;;;3.00;3.00;;;;;24.38;49.58;100029.28;5018535;28;45171;-42
2023/07/25 02:02:35;;;;;;;;;1.00;1.00;;;;;24.38;49.49;100024.00;5018498;28;45361;-42
2023/07/25 02:05:00;;;;;;;;;1.50;1.50;;;;;24.37;49.18;100019.66;5017849;28;52238;-42
2023/07/25 02:07:26;;;;;;;;;1.00;1.00;;;;;24.40;49.10;100026.50;5018287;28;45337;-44
2023/07/25 02:09:51;;;;;;;;;1.00;1.00;;;;;24.39;49.46;100024.81;5017412;28;45279;-42
2023/07/25 02:12:18;;;;;;;;;1.00;1.00;;;;;24.39;49.29;100024.81;5018071;28;45595;-45
2023/07/25 02:14:43;;;;;;;;;2.25;1.00;;;;;24.39;49.22;100028.31;5018016;28;46403;-42
2023/07/25 02:17:08;;;;;;;;;2.00;1.00;;;;;24.39;49.09;100025.69;5000326;28;45921;-43
2023/07/25 02:19:34;;;;;;;;;1.00;1.00;;;;;24.39;49.65;100022.19;5018163;28;45393;-43
2023/07/25 02:21:59;;;;;;;;;1.00;1.00;;;;;24.39;49.36;100022.19;5018338;28;45440;-41
2023/07/25 02:24:24;;;;;;;;;1.00;1.00;;;;;24.39;49.08;100011.59;5018118;28;45916;-40
2023/07/25 02:26:50;;;;;;;;;0.50;0.50;;;;;24.40;49.11;100000.03;5017780;28;45460;-43
2023/07/25 02:29:15;;;;;;;;;2.00;2.00;;;;;24.38;49.58;100000.16;5018055;28;45368;-42
2023/07/25 02:31:40;;;;;;;;;1.50;1.00;;;;;24.39;49.81;100001.84;5017988;28;45582;-46
2023/07/25 02:34:06;;;;;;;;;2.67;2.00;;;;;24.39;49.45;99996.53;5016898;28;70085;-38
2023/07/25 02:36:31;;;;;;;;;2.00;2.00;;;;;24.39;49.72;99993.91;5017240;28;56654;-43
2023/07/25 02:38:57;;;;;;;;;2.00;1.00;;;;;24.39;49.84;99991.25;5018131;28;45517;-39
2023/07/25 02:41:22;;;;;;;;;4.00;2.75;;;;;24.39;49.72;99990.41;5018016;28;45599;-41
2023/07/25 02:43:47;;;;;;;;;2.50;2.50;;;;;24.38;49.71;99997.50;5017150;28;61908;-41
2023/07/25 02:46:12;;;;;;;;;3.00;3.00;;;;;24.36;50.02;99996.81;5016957;28;56859;-38
2023/07/25 02:48:38;;;;;;;;;4.00;3.25;;;;;24.37;49.20;99993.19;5017794;28;45315;-45
2023/07/25 02:51:03;;;;;;;;;7.75;4.00;;;;;24.38;49.51;99986.91;5017735;28;45548;-40
2023/07/25 02:53:28;;;;;;;;;1.00;1.00;;;;;24.37;49.33;99984.38;5017548;28;47901;-37
2023/07/25 02:55:54;;;;;;;;;2.50;2.50;;;;;24.37;49.84;99987.03;5017533;28;45333;-35
2023/07/25 02:58:20;;;;;;;;;4.75;3.00;;;;;24.38;49.57;99986.06;5017368;28;45345;-37
2023/07/25 03:00:45;;;;;;;;;2.75;2.00;;;;;24.37;49.52;99984.38;4983434;28;45541;-38
2023/07/25 03:03:11;;;;;;;;;3.00;1.00;;;;;24.36;49.40;99994.16;5017230;28;47003;-35
2023/07/25 03:05:36;;;;;;;;;5.50;2.00;;;;;24.36;49.40;99988.84;5017073;28;51325;-37
2023/07/25 03:08:01;;;;;;;;;3.00;2.00;;;;;24.37;49.85;99995.84;5017418;28;45300;-35
2023/07/25 03:10:27;;;;;;;;;2.00;2.00;;;;;24.35;49.58;100000.41;5017903;28;45384;-40
2023/07/25 03:12:52;;;;;;;;;2.00;2.00;;;;;24.35;49.86;99999.59;5017149;28;45270;-36
2023/07/25 03:15:18;;;;;;;;;1.50;1.50;;;;;24.31;49.80;99992.88;4999267;28;45455;-38
2023/07/25 03:17:43;;;;;;;;;5.00;2.00;;;;;24.32;49.89;99992.72;4999385;28;45433;-37
2023/07/25 03:20:09;;;;;;;;;2.75;2.75;;;;;24.31;49.85;99996.34;5017275;28;45336;-35
2023/07/25 03:22:34;;;;;;;;;2.00;2.00;;;;;24.31;49.37;99999.00;5016944;28;45428;-37
2023/07/25 03:25:00;;;;;;;;;2.00;2.00;;;;;24.32;49.83;100002.50;5017128;28;51065;-37
2023/07/25 03:27:25;;;;;;;;;3.00;3.00;;;;;24.31;49.34;100012.22;5016911;28;45421;-36
2023/07/25 03:29:51;;;;;;;;;3.00;2.00;;;;;24.30;49.58;100009.72;5017270;28;45542;-37
2023/07/25 03:32:16;;;;;;;;;2.00;1.25;;;;;24.31;49.73;100009.56;5016754;28;46279;-36
2023/07/25 03:34:41;;;;;;;;;4.00;3.00;;;;;24.31;49.87;100012.22;5016819;28;45464;-35
2023/07/25 03:37:07;;;;;;;;;2.00;2.00;;;;;24.31;49.06;100006.94;5016967;28;45278;-37
2023/07/25 03:39:32;;;;;;;;;3.00;3.00;;;;;24.32;49.44;100007.78;5017419;28;45325;-34
2023/07/25 03:41:58;;;;;;;;;4.00;2.00;;;;;24.31;48.91;100006.94;4998843;28;47099;-39
2023/07/25 03:44:23;;;;;;;;;2.00;2.00;;;;;24.31;49.56;100012.22;5016738;28;45735;-39
2023/07/25 03:46:48;;;;;;;;;3.50;2.00;;;;;24.29;49.29;100003.59;4998852;28;45823;-37
2023/07/25 03:49:13;;;;;;;;;1.00;1.00;;;;;24.30;48.97;100010.56;5016756;28;45341;-40
2023/07/25 03:51:39;;;;;;;;;1.50;1.50;;;;;24.28;48.96;100012.50;5016438;28;46010;-38
2023/07/25 03:54:07;;;;;;;;;1.00;1.00;;;;;24.29;49.11;100016.84;5015545;28;65806;-37
2023/07/25 03:56:33;;;;;;;;;2.75;2.75;;;;;24.28;49.07;100023.09;5016905;28;45416;-36
2023/07/25 03:59:00;;;;;;;;;1.50;1.50;;;;;24.28;49.46;100036.34;5017059;28;45325;-39
2023/07/25 04:01:26;;;;;;;;;1.25;1.25;;;;;24.28;49.07;100038.13;5016382;28;45595;-43
2023/07/25 04:03:51;;;;;;;;;2.00;2.00;;;;;24.28;48.68;100046.06;5016424;28;45353;-42
2023/07/25 04:06:17;;;;;;;;;2.50;1.00;;;;;24.25;49.15;100044.53;5016423;28;45491;-38
2023/07/25 04:08:42;;;;;;;;;3.00;3.00;;;;;24.25;48.53;100055.13;5016715;28;45242;-37
2023/07/25 04:11:08;;;;;;;;;1.75;1.75;;;;;24.24;49.28;100040.19;5016221;28;45372;-41
2023/07/25 04:13:33;;;;;;;;;1.75;1.50;;;;;24.21;49.52;100033.38;5016551;28;45314;-37
2023/07/25 04:15:59;;;;;;;;;1.00;1.00;;;;;24.20;49.24;100044.06;5015667;28;45263;-33
2023/07/25 04:18:24;;;;;;;;;2.75;2.75;;;;;24.20;48.84;100054.66;5016530;28;45230;-36
2023/07/25 04:20:49;;;;;;;;;1.00;1.00;;;;;24.19;49.26;100055.66;5016145;28;46704;-44
2023/07/25 04:23:15;;;;;;;;;2.00;2.00;;;;;24.17;49.10;100061.06;5016301;28;45403;-36
2023/07/25 04:25:41;;;;;;;;;2.00;2.00;;;;;24.17;49.46;100052.28;5016351;28;45360;-44
2023/07/25 04:28:07;;;;;;;;;4.00;2.50;;;;;24.15;49.05;100056.88;5016314;28;45527;-40
2023/07/25 04:30:32;;;;;;;;;2.00;2.00;;;;;24.15;49.53;100051.56;5016323;28;47113;-40
2023/07/25 04:32:57;;;;;;;;;1.00;1.00;;;;;24.13;49.40;100053.50;5018607;28;50783;-45
2023/07/25 04:35:23;;;;;;;;;2.00;2.00;;;;;24.14;49.14;100044.59;5019633;28;45475;-46
2023/07/25 04:37:48;;;;;;;;;2.00;2.00;;;;;24.15;49.67;100054.22;5019969;28;45551;-40
2023/07/25 04:40:13;;;;;;;;;4.00;2.00;;;;;24.12;49.10;100054.47;5018923;28;63374;-40
2023/07/25 04:42:39;;;;;;;;;2.00;1.00;;;;;24.12;49.01;100063.25;5019506;28;45453;-37
2023/07/25 04:45:04;;;;;;;;;4.00;2.00;;;;;24.09;48.89;100058.22;5019903;28;45384;-37
2023/07/25 04:47:30;;;;;;;;;1.25;1.25;;;;;24.08;49.22;100053.88;5019521;28;45364;-37
2023/07/25 04:49:55;;;;;;;;;1.25;0.00;;;;;24.08;49.15;100060.03;5018913;28;59615;-39
2023/07/25 04:52:20;;;;;;;;;2.50;2.00;;;;;24.07;49.14;100057.50;5019199;28;45490;-36
2023/07/25 04:54:46;;;;;;;;;3.25;2.00;;;;;24.07;49.51;100060.13;5019208;28;45420;-35
2023/07/25 04:57:11;;;;;;;;;2.00;1.00;;;;;24.06;49.07;100072.56;5019488;28;45368;-34
2023/07/25 04:59:36;;;;;;;;;2.00;2.00;;;;;24.04;49.39;100066.53;5019390;28;46996;-38
2023/07/25 05:02:02;;;;;;;;;2.75;2.75;;;;;24.05;49.53;100070.88;5018680;28;55686;-36
2023/07/25 05:04:27;;;;;;;;;2.50;2.00;;;;;24.05;49.30;100078.81;5019287;28;45415;-36
2023/07/25 05:06:54;;;;;;;;;2.00;2.00;;;;;24.04;49.70;100074.47;5019319;28;45355;-38
2023/07/25 05:09:19;;;;;;;;;5.75;3.00;;;;;24.04;49.76;100082.41;5018796;28;46165;-35
2023/07/25 05:11:47;;;;;;;;;3.00;2.00;;;;;24.01;49.78;100077.38;5018948;28;45222;-36
2023/07/25 05:14:12;;;;;;;;;2.50;2.00;;;;;24.02;49.38;100086.16;5019138;28;45199;-37
2023/07/25 05:16:38;;;;;;;;;4.50;3.00;;;;;24.00;49.65;100078.34;5019360;28;45594;-38
2023/07/25 05:19:03;;;;;;;;;3.00;3.00;;;;;24.00;49.62;100085.44;5018651;28;57793;-37
2023/07/25 05:21:29;;;;;;;;;2.75;2.75;;;;;24.01;49.28;100090.59;5018854;28;45400;-34
2023/07/25 05:23:54;;;;;;;;;2.50;2.50;;;;;23.99;49.36;100084.59;5018084;28;57157;-34
2023/07/25 05:26:19;;;;;;;;;2.25;2.25;;;;;23.99;49.82;100087.25;5018275;28;51914;-36
2023/07/25 05:28:44;;;;;;;;;2.25;2.25;;;;;24.00;49.41;100086.28;5017871;28;66587;-34
2023/07/25 05:31:10;;;;;;;;;2.00;2.00;;;;;24.00;49.31;100082.81;5018079;28;61676;-38
2023/07/25 05:33:35;;;;;;;;;2.50;2.50;;;;;24.01;49.20;100084.47;5019038;28;45360;-37
2023/07/25 05:36:01;;;;;;;;;3.00;3.00;;;;;24.02;49.81;100087.00;5000479;28;56960;-36
2023/07/25 05:38:27;;;;;;;;;1.50;1.50;;;;;24.01;49.84;100090.59;5018387;28;46547;-36
2023/07/25 05:40:54;;;;;;;;;2.75;2.75;;;;;24.03;49.41;100096.63;5018496;28;45429;-34
2023/07/25 05:43:19;;;;;;;;;2.75;2.75;;;;;24.01;49.71;100101.19;4999703;28;45316;-38
2023/07/25 05:45:44;;;;;;;;;3.00;3.00;;;;;24.02;49.55;100102.06;5018631;28;45195;-37
2023/07/25 05:48:10;;;;;;;;;2.25;2.25;;;;;24.02;49.20;100097.59;5018680;28;46006;-39
2023/07/25 05:50:35;;;;;;;;;3.25;1.75;;;;;23.99;49.16;100097.81;5018657;28;45336;-34
2023/07/25 05:53:00;;;;;;;;;2.25;2.25;;;;;24.02;49.72;100097.59;5018255;28;45366;-35
2023/07/25 05:55:26;;;;;;;;;2.00;2.00;;;;;24.02;49.73;100102.88;5018555;28;45555;-36
2023/07/25 05:57:51;;;;;;;;;2.00;2.00;;;;;24.02;49.30;100105.53;5018128;28;45356;-39
2023/07/25 06:00:17;;;;;;;;;4.00;2.00;;;;;24.01;49.61;100106.47;5018286;28;45269;-34
2023/07/25 06:02:42;;;;;;;;;1.75;0.25;;;;;24.02;49.64;100112.63;5000587;28;45282;-34
2023/07/25 06:05:07;;;;;;;;;4.25;3.00;;;;;24.02;49.42;100117.94;5018903;28;45511;-35
2023/07/25 06:07:33;;;;;;;;;2.50;2.00;;;;;24.01;49.19;100119.72;5017804;28;46989;-36
2023/07/25 06:09:58;;;;;;;;;2.75;2.75;;;;;24.02;49.27;100126.69;5018054;28;45354;-43
2023/07/25 06:12:23;;;;;;;;;3.00;3.00;;;;;24.02;49.62;100129.34;5017447;28;57572;-43
2023/07/25 06:14:50;;;;;;;;;1.75;1.75;;;;;24.02;49.90;100129.34;5018216;28;45597;-42
2023/07/25 06:17:15;;;;;;;;;3.25;3.00;;;;;24.01;48.95;100132.97;5017748;28;46008;-41
2023/07/25 06:19:41;;;;;;;;;2.00;1.75;;;;;24.01;49.06;100132.97;5000316;28;45353;-44
2023/07/25 06:22:06;;;;;;;;;3.00;2.75;;;;;24.02;48.96;100139.94;5018008;28;45321;-42
2023/07/25 06:24:31;;;;;;;;;2.00;2.00;;;;;24.01;49.15;100140.06;5018026;28;45325;-38
2023/07/25 06:26:57;;;;;;;;;2.00;2.00;;;;;24.00;49.67;100144.50;5017783;28;46321;-35
2023/07/25 06:29:22;;;;;;;;;2.00;2.00;;;;;24.00;49.01;100141.84;5016897;28;67602;-36
2023/07/25 06:31:47;;;;;;;;;3.50;3.50;;;;;23.99;49.72;100145.47;4999760;28;53771;-39
2023/07/25 06:34:13;;;;;;;;;3.00;3.00;;;;;23.98;49.18;100154.38;5018213;28;45548;-36
2023/07/25 06:36:38;;;;;;;;;2.25;2.25;;;;;23.98;49.69;100151.72;5017831;28;46147;-42
2023/07/25 06:39:03;;;;;;;;;3.25;2.25;;;;;23.96;49.71;100144.88;5017472;28;45305;-36
2023/07/25 06:41:29;;;;;;;;;3.00;1.00;;;;;23.97;49.03;100152.72;5017685;28;45175;-39
2023/07/25 06:43:54;;;;;;;;;4.00;4.00;;;;;23.94;49.07;100148.47;5017706;28;45584;-38
2023/07/25 06:46:21;;;;;;;;;4.00;4.00;;;;;23.97;49.01;100157.16;4998585;28;70714;-35
2023/07/25 06:48:47;;;;;;;;;3.25;3.25;;;;;23.97;49.03;100157.16;5017386;28;45481;-36
2023/07/25 06:51:12;;;;;;;;;6.00;3.00;;;;;23.97;49.44;100167.75;5000188;28;45384;-37
2023/07/25 06:53:37;;;;;;;;;5.25;4.00;;;;;23.97;49.29;100167.75;5017051;28;47990;-36
2023/07/25 06:56:03;;;;;;;;;5.00;5.00;;;;;23.94;49.22;100164.34;5016715;28;47070;-35
2023/07/25 06:58:28;;;;;;;;;3.50;3.50;;;;;23.96;48.66;100180.16;5017467;28;45306;-35
2023/07/25 07:00:54;;;;;;;;;6.00;4.25;;;;;23.95;48.71;100181.09;5017636;28;45297;-46
2023/07/25 07:03:19;;;;;;;;;4.75;4.00;;;;;23.94;48.98;100182.88;5016651;28;45348;-47
2023/07/25 07:05:52;;;;;;;;;5.00;5.00;;;;;23.94;48.81;100195.28;5016292;28;45393;-37
2023/07/25 07:08:18;;;;;;;;;5.50;5.00;;;;;23.92;48.27;100198.03;5017105;28;45305;-43
2023/07/25 07:10:43;;;;;;;;;6.00;6.00;;;;;23.91;48.25;100199.00;5017629;28;45412;-42
2023/07/25 07:13:09;;;;;;;;;5.75;5.00;;;;;23.90;48.35;100201.75;5017095;28;47952;-41
2023/07/25 07:15:34;;;;;;;;;7.50;5.25;;;;;23.90;48.36;100205.25;5016982;28;47475;-44
2023/07/25 07:18:00;;;;;;;;;5.75;5.75;;;;;23.89;48.03;100208.00;5017140;28;45401;-36
2023/07/25 07:20:25;;;;;;;;;6.00;6.00;;;;;23.87;48.39;100217.88;5016617;28;58710;-39
2023/07/25 07:22:50;;;;;;;;;5.75;5.75;;;;;23.87;47.63;100225.81;5017266;28;45415;-40
2023/07/25 07:25:16;;;;;;;;;8.25;6.00;;;;;23.86;48.12;100235.56;4999349;28;45996;-40
2023/07/25 07:27:41;;;;;;;;;6.50;4.50;;;;;23.85;47.80;100233.06;4998807;28;54819;-39
2023/07/25 07:30:07;;;;;;;;;6.00;5.00;;;;;23.85;48.02;100243.66;5017004;28;45420;-40
2023/07/25 07:32:32;;;;;;;;;5.00;5.00;;;;;23.83;47.29;100242.91;4999238;28;45405;-41
2023/07/25 07:34:57;;;;;;;;;5.25;4.25;;;;;23.83;47.37;100253.50;5016096;28;61716;-35
2023/07/25 07:37:23;;;;;;;;;6.00;4.00;;;;;23.82;47.58;100249.16;5016540;28;45317;-34
2023/07/25 07:39:48;;;;;;;;;6.00;4.00;;;;;23.79;47.27;100255.56;5016468;28;51393;-34
2023/07/25 07:42:13;;;;;;;;;3.00;3.00;;;;;23.80;47.00;100261.69;5017290;28;45478;-35
2023/07/25 07:44:39;;;;;;;;;5.00;4.00;;;;;23.77;46.85;100268.06;5016486;28;46035;-42
2023/07/25 07:47:04;;;;;;;;;3.00;3.00;;;;;23.77;46.84;100271.53;5016545;28;45277;-39
2023/07/25 07:49:32;;;;;;;;;4.25;4.25;;;;;23.75;46.72;100277.91;5016693;28;45173;-37
2023/07/25 07:51:57;;;;;;;;;4.50;3.25;;;;;23.74;46.59;100273.59;5017147;28;46068;-35
2023/07/25 07:54:22;;;;;;;;;5.00;4.00;;;;;23.75;46.32;100291.16;5015848;28;55903;-37
2023/07/25 07:56:48;;;;;;;;;5.67;4.67;;;;;23.71;46.87;100282.59;5015932;28;61545;-36
2023/07/25 07:59:13;;;;;;;;;4.00;2.00;;;;;23.73;46.44;100301.00;5016992;28;45451;-35
2023/07/25 08:01:38;;;;;;;;;4.00;2.50;;;;;23.70;46.16;100304.72;5016410;28;46364;-35
2023/07/25 08:04:04;;;;;;;;;2.50;2.00;;;;;23.71;46.09;100309.06;5016433;28;45358;-37
2023/07/25 08:06:29;;;;;;;;;2.00;2.00;;;;;23.68;46.14;100309.28;5015310;28;45503;-41
2023/07/25 08:08:54;;;;;;;;;3.75;2.00;;;;;23.70;45.77;100317.13;5016532;28;45341;-36
2023/07/25 08:11:19;;;;;;;;;2.00;2.00;;;;;23.68;45.85;100311.94;5016187;28;50331;-37
2023/07/25 08:13:45;;;;;;;;;3.50;3.00;;;;;23.67;46.00;100315.53;5016467;28;45388;-34
2023/07/25 08:16:10;;;;;;;;;2.00;1.00;;;;;23.65;45.64;100306.06;5016121;28;47633;-36
2023/07/25 08:18:35;;;;;;;;;2.00;1.00;;;;;23.65;45.34;100312.16;5015758;28;59647;-41
2023/07/25 08:21:01;;;;;;;;;2.00;2.00;;;;;23.64;45.72;100315.81;5016144;28;45624;-38
2023/07/25 08:23:27;;;;;;;;;3.25;2.25;;;;;23.64;45.69;100321.09;5016077;28;46347;-38
2023/07/25 08:25:54;;;;;;;;;1.00;1.00;;;;;23.62;45.10;100328.31;5015055;28;45438;-36
2023/07/25 08:28:20;;;;;;;;;1.00;1.00;;;;;23.61;45.56;100331.91;5016332;28;45291;-34
2023/07/25 08:30:45;;;;;;;;;3.00;1.00;;;;;23.61;44.88;100334.56;5016663;28;45238;-36
2023/07/25 08:33:12;;;;;;;;;2.00;2.00;;;;;23.59;44.83;100339.94;5015661;28;56467;-39
2023/07/25 20:44:21;;;;;;;;;4.00;4.00;;;;;23.53;39.81;100895.09;4975210;28;45483;-42
2023/07/25 20:46:46;;;;;;;;;5.00;4.75;;;;;23.53;39.64;100892.44;4976701;28;45542;-43
2023/07/25 20:49:12;;;;;;;;;7.50;6.00;;;;;23.56;39.40;100894.84;4975872;28;60842;-40
2023/07/25 20:51:37;;;;;;;;;4.75;4.25;;;;;23.55;39.83;100895.81;4976386;28;45246;-43
2023/07/25 20:54:02;;;;;;;;;4.50;4.50;;;;;23.56;39.52;100900.16;4976485;28;45329;-43
2023/07/25 20:56:28;;;;;;;;;3.00;3.00;;;;;23.54;39.93;100896.75;4976472;28;45192;-41
2023/07/25 20:58:54;;;;;;;;;5.50;4.25;;;;;23.57;40.16;100899.19;4976499;28;45351;-42
2023/07/25 21:01:19;;;;;;;;;6.25;4.00;;;;;23.56;40.18;100911.59;4976194;28;45454;-42
2023/07/25 21:03:44;;;;;;;;;3.00;3.00;;;;;23.58;39.78;100904.41;4975907;28;54400;-41
2023/07/25 21:06:10;;;;;;;;;1.50;1.50;;;;;23.59;39.75;100911.38;4976111;28;46896;-39
2023/07/25 21:08:35;;;;;;;;;3.00;3.00;;;;;23.59;39.56;100910.53;4958577;28;46010;-39
2023/07/25 21:11:01;;;;;;;;;3.00;3.00;;;;;23.58;39.85;100911.47;4976142;28;45430;-44
2023/07/25 21:13:27;;;;;;;;;6.00;3.00;;;;;23.59;40.15;100910.53;4977165;28;45485;-42
2023/07/25 21:15:52;;;;;;;;;3.00;3.00;;;;;23.57;39.82;100910.66;4980213;28;45639;-40
2023/07/25 21:18:18;;;;;;;;;4.00;3.25;;;;;23.58;39.76;100914.13;4979426;28;46140;-44
2023/07/25 21:20:43;;;;;;;;;3.75;3.75;;;;;23.56;39.98;100918.66;4979308;28;45413;-41
2023/07/25 21:23:09;;;;;;;;;3.00;3.00;;;;;23.56;39.96;100923.97;4979713;28;45390;-39
2023/07/25 21:25:37;;;;;;;;;5.00;4.00;;;;;23.56;39.95;100929.25;4979786;28;45269;-42
2023/07/25 21:28:03;;;;;;;;;3.50;3.00;;;;;23.55;39.93;100925.78;4979072;28;47388;-42
2023/07/25 21:30:28;;;;;;;;;2.50;2.50;;;;;23.52;39.91;100927.78;4979406;28;45620;-44
2023/07/25 21:32:53;;;;;;;;;4.00;4.00;;;;;23.53;39.73;100929.47;4979348;28;53858;-42
2023/07/25 21:35:19;;;;;;;;;3.00;3.00;;;;;23.55;39.76;100931.06;4979510;28;45210;-39
2023/07/25 21:37:44;;;;;;;;;3.00;3.00;;;;;23.55;40.09;100930.19;4978576;28;46068;-44
2023/07/25 21:40:10;;;;;;;;;3.00;3.00;;;;;23.56;39.71;100937.19;4968891;28;45380;-45
2023/07/25 21:42:35;;;;;;;;;4.75;3.00;;;;;23.57;39.63;100941.53;4957996;28;45499;-43
2023/07/25 21:45:00;;;;;;;;;4.00;3.00;;;;;23.53;40.42;100935.59;4942130;28;45458;-40
2023/07/25 21:47:26;;;;;;;;;3.00;3.00;;;;;23.55;40.33;100941.66;4959636;28;47085;-45
2023/07/25 21:49:51;;;;;;;;;4.00;4.00;;;;;23.53;40.23;100937.41;4958934;28;46208;-47
2023/07/25 21:52:16;;;;;;;;;3.25;3.25;;;;;23.52;39.86;100939.19;4959764;28;45436;-46
2023/07/25 21:54:42;;;;;;;;;2.50;2.50;;;;;23.51;40.18;100937.50;4959603;28;45571;-43
2023/07/25 21:57:07;;;;;;;;;3.50;3.50;;;;;23.51;39.75;100945.44;4959345;28;46830;-44
2023/07/25 21:59:32;;;;;;;;;2.25;2.25;;;;;23.50;40.21;100940.25;4959491;28;45355;-46
2023/07/25 22:01:57;;;;;;;;;5.50;3.75;;;;;23.48;39.87;100935.06;4959541;28;48957;-41
2023/07/25 22:04:23;;;;;;;;;4.67;3.00;;;;;23.47;39.76;100942.16;4959035;28;53096;-40
2023/07/25 22:06:48;;;;;;;;;3.25;3.25;;;;;23.47;39.80;100939.50;4959066;28;47379;-44
2023/07/25 22:09:13;;;;;;;;;2.75;2.75;;;;;23.46;39.36;100945.75;4958075;28;45392;-44
2023/07/25 22:11:39;;;;;;;;;3.75;3.75;;;;;23.46;39.96;100943.09;4959479;28;45317;-44
2023/07/25 22:14:05;;;;;;;;;3.00;3.00;;;;;23.43;39.47;100938.00;4959573;28;45570;-42
2023/07/25 22:16:30;;;;;;;;;3.25;3.25;;;;;23.45;39.42;100945.84;4959488;28;45667;-40
2023/07/25 22:18:55;;;;;;;;;6.75;3.75;;;;;23.43;39.19;100943.28;4959096;28;45298;-48
2023/07/25 22:21:21;;;;;;;;;3.00;3.00;;;;;23.40;39.50;100943.50;4959262;28;46778;-41
2023/07/25 22:23:46;;;;;;;;;5.00;2.00;;;;;23.39;39.03;100936.53;4941687;28;46749;-41
2023/07/25 22:26:11;;;;;;;;;2.00;2.00;;;;;23.43;38.68;100945.09;4957862;28;56359;-41
2023/07/25 22:28:37;;;;;;;;;3.00;3.00;;;;;23.42;38.93;100941.63;4958857;28;45231;-43
2023/07/25 22:31:02;;;;;;;;;3.00;3.00;;;;;23.42;38.88;100946.91;4959294;28;45300;-44
2023/07/25 22:33:27;;;;;;;;;4.25;3.00;;;;;23.40;38.92;100954.09;4959525;28;45210;-42
2023/07/25 22:35:53;;;;;;;;;3.00;3.00;;;;;23.39;38.77;100948.88;4958887;28;46026;-44
2023/07/25 22:38:18;;;;;;;;;2.75;2.00;;;;;23.39;38.81;100948.88;4958827;28;45186;-41
2023/07/25 22:40:44;;;;;;;;;2.25;2.25;;;;;23.39;38.69;100949.75;4959089;28;45258;-45
2023/07/25 22:43:10;;;;;;;;;2.00;2.00;;;;;23.37;38.53;100946.34;4959125;28;45459;-41
2023/07/25 22:45:35;;;;;;;;;2.00;2.00;;;;;23.37;38.31;100946.34;4958768;28;46158;-42
2023/07/25 22:48:01;;;;;;;;;4.50;3.00;;;;;23.38;38.72;100952.47;4957783;28;45413;-42
2023/07/25 22:50:26;;;;;;;;;3.00;3.00;;;;;23.38;38.24;100956.00;4958731;28;45333;-46
2023/07/25 22:52:51;;;;;;;;;1.00;1.00;;;;;23.37;38.56;100950.81;4958910;28;45324;-39
2023/07/25 22:55:18;;;;;;;;;2.67;2.67;;;;;23.36;37.91;100955.22;4957839;28;67844;-46
2023/07/25 22:57:44;;;;;;;;;3.50;3.00;;;;;23.36;38.13;100957.88;4958605;28;46301;-46
2023/07/25 23:00:10;;;;;;;;;1.75;1.75;;;;;23.35;38.34;100950.88;4958816;28;45436;-43
2023/07/25 23:02:36;;;;;;;;;4.50;2.75;;;;;23.33;37.89;100947.50;4957405;28;45294;-42
2023/07/25 23:05:02;;;;;;;;;2.00;2.00;;;;;23.33;37.97;100952.78;4958562;28;46285;-41
2023/07/25 23:07:28;;;;;;;;;3.75;3.75;;;;;23.33;37.93;100958.06;4958414;28;45175;-46
2023/07/25 23:09:54;;;;;;;;;2.00;2.00;;;;;23.34;38.29;100956.28;4958542;28;45417;-40
2023/07/25 23:12:21;;;;;;;;;2.75;2.75;;;;;23.33;37.76;100949.31;4958732;28;45329;-42
2023/07/25 23:14:46;;;;;;;;;2.75;2.75;;;;;23.33;37.91;100958.06;4958344;28;46118;-42
2023/07/25 23:17:11;;;;;;;;;3.00;3.00;;;;;23.32;37.81;100948.44;4958324;28;45341;-44
2023/07/25 23:19:37;;;;;;;;;2.50;2.50;;;;;23.32;37.76;100953.72;4958502;28;45413;-42
2023/07/25 23:22:03;;;;;;;;;4.00;2.75;;;;;23.33;37.97;100958.06;4941539;28;45583;-46
2023/07/25 23:24:28;;;;;;;;;3.00;3.00;;;;;23.30;38.03;100951.19;4940634;28;46119;-43
2023/07/25 23:26:53;;;;;;;;;3.25;3.00;;;;;23.32;37.94;100966.94;4958083;28;45329;-42